Time;durP1;ratioP1;P1;durP2;ratioP2;P2;SDS_P1;SDS_P2;PMS_P1;PMS_P2;Temp;Humidity;BMP_temperature;BMP_pressure;BME280_temperature;BME280_humidity;BME280_pressure;Samples;Min_cycle;Max_cycle;Signal;HPM_P1;HPM_P2
2022/07/31 00:00:47;;;;;;;13.63;9.05;;;;;;;26.23;57.86;94782.66;5063999;28;20524;-55
2022/07/31 00:03:12;;;;;;;11.13;9.13;;;;;;;26.18;58.40;94780.78;5059981;28;20110;-56
2022/07/31 00:05:38;;;;;;;12.18;9.25;;;;;;;26.21;58.00;94784.47;5060278;28;20064;-55
2022/07/31 00:08:04;;;;;;;12.05;9.60;;;;;;;26.22;57.94;94781.22;5062759;28;20509;-55
2022/07/31 00:10:29;;;;;;;11.00;8.45;;;;;;;26.19;57.62;94776.81;5063614;28;20093;-57
2022/07/31 00:12:54;;;;;;;10.75;9.63;;;;;;;26.15;57.94;94776.38;5061289;28;20040;-56
2022/07/31 00:15:20;;;;;;;12.50;8.85;;;;;;;26.15;57.89;94775.66;5063086;28;20040;-55
2022/07/31 00:17:46;;;;;;;11.50;8.40;;;;;;;26.14;57.67;94791.34;5062023;28;20581;-55
2022/07/31 00:20:12;;;;;;;11.52;8.95;;;;;;;26.16;58.00;94788.06;5063919;28;20552;-55
2022/07/31 00:22:41;;;;;;;11.40;9.20;;;;;;;26.14;58.02;94796.81;5062181;28;20040;-55
2022/07/31 00:25:08;;;;;;;10.10;8.68;;;;;;;26.15;57.88;94792.81;5063751;28;20032;-57
2022/07/31 00:27:33;;;;;;;10.73;8.85;;;;;;;26.17;57.99;94795.75;5059200;28;20037;-57
2022/07/31 00:29:58;;;;;;;12.18;8.40;;;;;;;26.14;57.48;94810.50;5062322;28;20085;-58
2022/07/31 00:32:24;;;;;;;9.60;8.50;;;;;;;26.13;57.34;94806.31;5060978;28;20495;-57
2022/07/31 00:34:49;;;;;;;12.65;8.70;;;;;;;26.10;57.81;94796.41;5059639;28;20060;-55
2022/07/31 00:37:15;;;;;;;11.35;8.30;;;;;;;26.09;57.83;94800.41;5062892;28;20041;-56
2022/07/31 00:39:40;;;;;;;11.18;8.40;;;;;;;26.09;57.62;94799.69;5063691;28;20118;-55
2022/07/31 00:42:18;;;;;;;9.45;8.15;;;;;;;26.09;57.62;94803.16;5063266;28;20032;-55
2022/07/31 00:44:44;;;;;;;9.73;7.82;;;;;;;26.13;57.62;94811.03;5062295;28;20071;-57
2022/07/31 00:47:09;;;;;;;10.25;8.13;;;;;;;26.11;57.61;94808.09;5063708;28;20044;-56
2022/07/31 00:49:35;;;;;;;12.30;8.30;;;;;;;26.06;57.63;94801.47;5060744;28;20039;-55
2022/07/31 00:52:00;;;;;;;10.27;8.30;;;;;;;26.07;57.26;94807.69;5060599;28;20052;-56
2022/07/31 00:54:26;;;;;;;9.25;7.82;;;;;;;26.04;57.30;94804.03;5059565;28;20086;-56
2022/07/31 00:56:51;;;;;;;13.50;8.00;;;;;;;26.02;57.45;94806.56;5063173;28;20032;-56
2022/07/31 00:59:17;;;;;;;10.43;8.02;;;;;;;25.98;57.38;94806.16;5049908;28;20424;-55
2022/07/31 01:01:42;;;;;;;9.38;7.47;;;;;;;25.99;57.31;94813.09;5045330;28;20260;-55
2022/07/31 01:04:07;;;;;;;10.23;8.05;;;;;;;25.98;56.94;94806.16;5043661;28;20098;-54
2022/07/31 01:06:33;;;;;;;9.02;7.13;;;;;;;25.96;56.99;94813.41;5032100;28;20128;-54
2022/07/31 01:08:58;;;;;;;9.68;7.68;;;;;;;25.99;56.93;94812.34;5035738;28;20933;-55
2022/07/31 01:11:35;;;;;;;9.48;7.43;;;;;;;25.99;56.93;94818.56;5039530;28;20415;-53
2022/07/31 01:14:03;;;;;;;9.05;6.93;;;;;;;25.95;57.03;94823.63;5033946;28;20099;-54
2022/07/31 01:16:31;;;;;;;10.23;8.25;;;;;;;25.94;56.89;94813.94;5041374;28;20060;-56
2022/07/31 01:18:58;;;;;;;9.40;7.55;;;;;;;25.91;56.83;94812.25;5020157;28;20127;-54
2022/07/31 01:21:47;;;;;;;8.73;7.40;;;;;;;25.91;56.77;94809.53;5015979;28;20041;-56
2022/07/31 01:24:31;;;;;;;10.20;7.40;;;;;;;25.88;56.46;94807.84;5018147;28;20041;-53
2022/07/31 01:27:00;;;;;;;11.10;8.18;;;;;;;25.88;56.19;94802.38;5047591;28;20507;-52
2022/07/31 01:29:34;;;;;;;9.03;7.33;;;;;;;25.85;56.54;94811.66;5050162;28;20439;-55
2022/07/31 01:32:01;;;;;;;10.85;7.60;;;;;;;25.84;56.71;94812.94;5028548;28;20079;-54
2022/07/31 01:34:41;;;;;;;11.77;8.02;;;;;;;25.85;56.75;94819.84;5024606;28;20033;-53
2022/07/31 01:37:13;;;;;;;10.15;7.80;;;;;;;25.84;56.60;94818.41;5016831;28;20044;-53
2022/07/31 01:39:40;;;;;;;9.75;7.65;;;;;;;25.82;56.37;94820.91;5020756;28;20055;-53
2022/07/31 01:42:06;;;;;;;9.15;7.32;;;;;;;25.80;56.58;94817.25;5030045;28;20570;-55
2022/07/31 01:44:34;;;;;;;10.32;7.82;;;;;;;25.82;56.58;94815.44;5027606;28;20024;-53
2022/07/31 01:47:00;;;;;;;10.13;7.60;;;;;;;25.79;56.44;94815.06;5030600;28;20033;-54
2022/07/31 01:49:25;;;;;;;11.50;8.48;;;;;;;25.78;56.20;94810.84;5032281;28;20040;-54
2022/07/31 01:51:51;;;;;;;9.48;7.35;;;;;;;25.80;56.42;94806.31;5041262;28;20029;-54
2022/07/31 01:54:17;;;;;;;9.00;7.22;;;;;;;25.79;56.26;94805.56;5041885;28;20025;-54
2022/07/31 01:56:43;;;;;;;9.50;7.32;;;;;;;25.78;56.46;94805.38;5029159;28;20492;-53
2022/07/31 01:59:09;;;;;;;9.35;7.60;;;;;;;25.78;56.33;94808.09;5042946;28;20048;-54
2022/07/31 02:01:34;;;;;;;11.18;7.65;;;;;;;25.74;56.17;94807.69;5044944;28;20391;-53
2022/07/31 02:04:00;;;;;;;12.05;7.03;;;;;;;25.75;56.21;94809.88;5011605;28;20045;-57
2022/07/31 02:06:25;;;;;;;9.95;7.28;;;;;;;25.76;56.07;94810.63;5015253;28;20044;-53
2022/07/31 02:08:51;;;;;;;8.95;7.38;;;;;;;25.74;56.15;94819.38;5046454;28;20091;-57
2022/07/31 02:11:17;;;;;;;11.05;7.03;;;;;;;25.73;55.78;94812.41;5030393;28;20025;-57
2022/07/31 02:13:44;;;;;;;9.50;7.45;;;;;;;25.72;55.73;94810.22;5026750;28;20120;-56
2022/07/31 02:16:10;;;;;;;9.98;7.53;;;;;;;25.68;55.68;94807.81;5031404;28;20033;-56
2022/07/31 02:18:36;;;;;;;9.95;6.85;;;;;;;25.63;55.80;94807.88;5028057;28;20033;-55
2022/07/31 02:21:01;;;;;;;11.00;7.45;;;;;;;25.63;55.61;94814.09;5019387;28;20052;-54
2022/07/31 02:23:26;;;;;;;12.20;7.78;;;;;;;25.64;55.90;94806.63;5032745;28;20098;-52
2022/07/31 02:25:52;;;;;;;10.60;7.32;;;;;;;25.63;55.48;94807.88;5035166;28;20079;-53
2022/07/31 02:28:21;;;;;;;8.15;7.28;;;;;;;25.62;55.92;94803.66;5015117;28;20120;-53
2022/07/31 02:30:46;;;;;;;9.07;7.10;;;;;;;25.62;55.63;94800.94;5044978;28;20094;-53
2022/07/31 02:33:13;;;;;;;10.18;7.38;;;;;;;25.62;55.53;94817.34;5045432;28;20041;-54
2022/07/31 02:35:39;;;;;;;10.38;7.07;;;;;;;25.59;55.55;94812.94;5019020;28;20207;-58
2022/07/31 02:38:04;;;;;;;9.48;7.68;;;;;;;25.60;56.05;94825.34;5045849;28;20450;-55
2022/07/31 02:40:30;;;;;;;10.38;7.40;;;;;;;25.55;55.56;94818.72;5036270;28;20036;-54
2022/07/31 02:42:55;;;;;;;9.13;7.20;;;;;;;25.54;55.67;94822.00;5045419;28;20045;-54
2022/07/31 02:45:21;;;;;;;9.63;7.40;;;;;;;25.56;55.57;94819.47;5035293;28;20508;-55
2022/07/31 02:47:47;;;;;;;10.07;7.25;;;;;;;25.53;55.53;94823.25;5045442;28;20056;-54
2022/07/31 02:50:12;;;;;;;12.23;7.72;;;;;;;25.55;55.76;94826.22;5017892;28;20491;-55
2022/07/31 02:52:38;;;;;;;9.05;7.20;;;;;;;25.52;55.79;94830.00;5032406;28;20032;-55
2022/07/31 02:55:04;;;;;;;10.10;7.13;;;;;;;25.50;55.84;94824.31;5027218;28;20029;-54
2022/07/31 02:57:29;;;;;;;9.82;7.85;;;;;;;25.52;55.78;94833.47;5049357;28;20039;-55
2022/07/31 02:59:54;;;;;;;11.40;7.65;;;;;;;25.46;56.09;94829.38;5053628;28;20068;-53
2022/07/31 03:02:20;;;;;;;8.75;7.32;;;;;;;25.43;55.82;94827.69;5065148;28;20525;-56
2022/07/31 03:04:45;;;;;;;9.98;7.85;;;;;;;25.45;56.13;94825.16;5063633;28;20044;-54
2022/07/31 03:07:11;;;;;;;10.07;7.57;;;;;;;25.46;56.07;94821.16;5064975;28;20025;-56
2022/07/31 03:09:37;;;;;;;10.13;7.93;;;;;;;25.42;56.50;94826.22;5059719;28;20174;-57
2022/07/31 03:12:02;;;;;;;10.77;8.18;;;;;;;25.43;56.25;94822.22;5045796;28;20033;-56
2022/07/31 03:14:28;;;;;;;13.23;7.90;;;;;;;25.44;56.36;94829.16;5047787;28;20802;-57
2022/07/31 03:16:53;;;;;;;9.93;7.47;;;;;;;25.43;56.48;94825.69;5025252;28;20036;-53
2022/07/31 03:19:19;;;;;;;10.85;7.35;;;;;;;25.46;56.33;94832.09;5045792;28;20044;-55
2022/07/31 03:21:45;;;;;;;10.88;7.85;;;;;;;25.46;56.55;94834.84;5065079;28;20089;-56
2022/07/31 03:24:10;;;;;;;10.38;7.70;;;;;;;25.42;56.72;94837.16;5043625;28;20028;-55
2022/07/31 03:26:36;;;;;;;11.07;7.75;;;;;;;25.42;56.39;94837.16;5065367;28;20037;-56
2022/07/31 03:29:02;;;;;;;9.13;7.53;;;;;;;25.41;56.72;94841.13;5058313;28;20099;-55
2022/07/31 03:31:28;;;;;;;9.85;8.30;;;;;;;25.41;56.63;94846.59;5060863;28;20839;-55
2022/07/31 03:33:54;;;;;;;9.80;7.18;;;;;;;25.41;56.68;94841.13;5058454;28;20041;-55
2022/07/31 03:36:19;;;;;;;10.23;7.72;;;;;;;25.41;56.67;94841.13;5062234;28;20118;-57
2022/07/31 03:38:45;;;;;;;8.93;7.32;;;;;;;25.39;56.78;94843.66;5059407;28;20033;-55
2022/07/31 03:41:10;;;;;;;9.75;7.28;;;;;;;25.39;56.77;94843.66;5059890;28;20029;-56
2022/07/31 03:43:36;;;;;;;9.60;6.88;;;;;;;25.40;56.42;94839.69;5055257;28;20029;-56
2022/07/31 03:46:01;;;;;;;10.52;7.93;;;;;;;25.38;56.76;94853.13;5042484;28;20044;-55
2022/07/31 03:48:30;;;;;;;9.68;7.40;;;;;;;25.37;56.96;94857.88;5059264;28;20040;-57
2022/07/31 03:50:55;;;;;;;10.70;8.00;;;;;;;25.37;56.72;94857.13;5045327;28;20037;-56
2022/07/31 03:53:21;;;;;;;11.68;7.70;;;;;;;25.37;56.82;94854.41;5058656;28;20583;-56
2022/07/31 03:55:47;;;;;;;10.93;7.45;;;;;;;25.36;56.71;94861.13;5044971;28;20046;-57
2022/07/31 03:58:12;;;;;;;8.88;7.13;;;;;;;25.39;56.45;94860.06;5042407;28;20068;-55
2022/07/31 04:00:38;;;;;;;8.85;7.35;;;;;;;25.36;56.50;94863.84;5043933;28;20033;-56
2022/07/31 04:03:08;;;;;;;9.35;7.22;;;;;;;25.37;56.17;94857.13;5042573;28;20437;-55
2022/07/31 04:05:33;;;;;;;8.57;6.68;;;;;;;25.36;56.19;94866.59;5043979;28;20052;-55
2022/07/31 04:07:59;;;;;;;9.45;7.50;;;;;;;25.35;55.85;94854.94;5041238;28;20028;-55
2022/07/31 04:10:24;;;;;;;9.45;7.40;;;;;;;25.36;56.02;94866.59;5040434;28;20037;-54
2022/07/31 04:12:50;;;;;;;8.32;6.72;;;;;;;25.32;55.94;94871.66;5038310;28;20132;-57
2022/07/31 04:15:15;;;;;;;9.80;7.10;;;;;;;25.28;55.94;94865.75;5039869;28;20040;-56
2022/07/31 04:17:41;;;;;;;9.43;7.43;;;;;;;25.34;55.98;94863.66;5039014;28;20503;-55
2022/07/31 04:20:07;;;;;;;10.43;7.32;;;;;;;25.32;56.11;94861.44;5043995;28;20029;-55
2022/07/31 04:22:32;;;;;;;9.52;7.43;;;;;;;25.32;55.62;94860.72;5034652;28;20049;-54
2022/07/31 04:24:58;;;;;;;9.38;7.50;;;;;;;25.35;56.03;94856.91;5039198;28;20106;-59
2022/07/31 04:27:23;;;;;;;9.80;7.50;;;;;;;25.34;56.12;94852.72;5038582;28;20033;-55
2022/07/31 04:29:49;;;;;;;9.90;7.75;;;;;;;25.32;56.35;94852.53;5038445;28;20044;-57
2022/07/31 04:32:14;;;;;;;11.05;7.82;;;;;;;25.33;56.30;94852.00;5043869;28;20048;-55
2022/07/31 04:34:41;;;;;;;10.50;7.95;;;;;;;25.39;56.18;94851.88;5043926;28;20070;-55
2022/07/31 04:37:06;;;;;;;11.02;8.38;;;;;;;25.39;56.20;94849.13;5043804;28;20040;-53
2022/07/31 04:39:32;;;;;;;10.48;8.23;;;;;;;25.42;56.12;94853.56;5037262;28;20036;-54
2022/07/31 04:41:58;;;;;;;10.75;8.73;;;;;;;25.45;55.98;94855.22;5034640;28;20040;-54
2022/07/31 04:44:23;;;;;;;10.32;8.25;;;;;;;25.45;56.06;94852.50;5039016;28;20037;-55
2022/07/31 04:46:49;;;;;;;10.18;7.85;;;;;;;25.46;55.81;94848.50;5042428;28;20033;-56
2022/07/31 04:49:14;;;;;;;9.23;7.47;;;;;;;25.25;56.19;94850.41;5042447;28;20048;-59
2022/07/31 04:51:41;;;;;;;9.15;7.55;;;;;;;25.03;57.05;94850.78;5034897;28;20614;-57
2022/07/31 04:54:06;;;;;;;9.45;7.38;;;;;;;24.87;57.34;94854.53;5039310;28;20064;-55
2022/07/31 04:56:32;;;;;;;9.40;7.82;;;;;;;24.83;57.58;94859.56;5043597;28;20037;-57
2022/07/31 04:59:01;;;;;;;8.77;6.90;;;;;;;24.76;57.92;94858.72;5044477;28;20074;-59
2022/07/31 05:01:27;;;;;;;10.02;7.57;;;;;;;24.65;58.61;94864.34;5038657;28;20068;-60
2022/07/31 05:03:52;;;;;;;11.77;7.85;;;;;;;24.65;58.43;94858.88;5043921;28;20037;-58
2022/07/31 05:06:18;;;;;;;9.27;7.70;;;;;;;24.62;58.33;94871.59;5047656;28;20482;-55
2022/07/31 05:08:43;;;;;;;8.32;7.22;;;;;;;24.67;58.49;94861.84;5045619;28;20041;-58
2022/07/31 05:11:21;;;;;;;8.55;6.88;;;;;;;24.67;57.97;94867.31;5045034;28;20522;-60
2022/07/31 05:13:47;;;;;;;10.52;6.93;;;;;;;24.68;58.17;94863.28;5039203;28;20470;-57
2022/07/31 05:16:13;;;;;;;8.45;6.80;;;;;;;24.76;58.22;94861.44;5044946;28;20040;-60
2022/07/31 05:18:38;;;;;;;7.70;6.90;;;;;;;24.77;58.21;94865.63;5041174;28;20484;-59
2022/07/31 05:21:04;;;;;;;9.90;6.97;;;;;;;24.69;58.08;94856.59;5034298;28;20033;-58
2022/07/31 05:23:29;;;;;;;8.15;6.53;;;;;;;24.83;58.15;94859.56;5046355;28;20048;-58
2022/07/31 05:25:55;;;;;;;8.60;6.80;;;;;;;24.96;57.41;94856.88;5049468;28;20061;-55
2022/07/31 05:28:20;;;;;;;8.90;6.78;;;;;;;25.20;57.02;94864.91;5050387;28;20028;-56
2022/07/31 05:30:45;;;;;;;7.80;6.13;;;;;;;25.43;56.08;94860.50;5037144;28;20028;-54
2022/07/31 05:33:11;;;;;;;6.82;6.00;;;;;;;25.60;55.57;94858.16;5039666;28;20041;-54
2022/07/31 05:35:36;;;;;;;8.15;6.68;;;;;;;25.74;55.30;94863.13;5037004;28;20036;-56
2022/07/31 05:38:02;;;;;;;8.48;6.28;;;;;;;25.86;54.60;94856.91;5040024;28;20021;-55
2022/07/31 05:40:27;;;;;;;7.57;6.28;;;;;;;26.06;54.55;94850.75;5039211;28;20029;-55
2022/07/31 05:42:54;;;;;;;8.52;6.57;;;;;;;26.16;53.88;94849.03;5043366;28;20029;-55
2022/07/31 05:45:19;;;;;;;8.57;6.25;;;;;;;26.27;53.52;94860.50;5041381;28;20044;-56
2022/07/31 05:47:45;;;;;;;7.55;6.03;;;;;;;26.35;53.36;94866.03;5047223;28;20028;-57
2022/07/31 05:50:10;;;;;;;9.50;6.68;;;;;;;26.51;52.79;94862.19;5043785;28;20037;-56
2022/07/31 05:52:36;;;;;;;9.75;6.90;;;;;;;26.66;52.61;94851.38;5035576;28;20033;-53
2022/07/31 05:55:01;;;;;;;8.80;7.30;;;;;;;26.77;52.33;94851.84;5040391;28;20522;-56
2022/07/31 05:57:27;;;;;;;10.10;7.18;;;;;;;26.84;52.04;94854.63;5045792;28;20423;-53
2022/07/31 05:59:52;;;;;;;7.97;6.38;;;;;;;26.96;51.50;94858.59;5040244;28;20032;-56
2022/07/31 06:02:18;;;;;;;7.95;6.47;;;;;;;27.06;51.86;94865.09;5061960;28;20033;-62
2022/07/31 06:04:43;;;;;;;10.23;6.95;;;;;;;27.18;51.00;94857.31;5055382;28;20044;-62
2022/07/31 06:07:08;;;;;;;8.88;6.75;;;;;;;27.25;50.54;94873.81;5062877;28;20044;-59
2022/07/31 06:09:34;;;;;;;8.88;7.13;;;;;;;27.35;50.28;94866.56;5061694;28;20032;-58
2022/07/31 06:11:59;;;;;;;9.80;7.82;;;;;;;27.44;50.28;94860.59;5062156;28;20546;-59
2022/07/31 06:14:25;;;;;;;9.02;6.93;;;;;;;27.61;49.92;94852.66;5061359;28;20499;-62
2022/07/31 06:16:51;;;;;;;10.07;7.38;;;;;;;27.71;50.02;94853.63;5058007;28;20058;-58
2022/07/31 06:19:19;;;;;;;9.75;7.30;;;;;;;27.73;49.11;94852.56;5052822;28;20037;-58
2022/07/31 06:21:44;;;;;;;9.05;7.03;;;;;;;27.82;48.99;94854.78;5056080;28;20028;-60
2022/07/31 06:24:10;;;;;;;8.90;7.05;;;;;;;27.87;48.87;94853.88;5053409;28;20049;-59
2022/07/31 06:26:35;;;;;;;10.52;7.95;;;;;;;27.98;48.51;94856.34;5058044;28;20028;-58
2022/07/31 06:29:01;;;;;;;8.63;7.03;;;;;;;28.05;48.98;94860.38;5060071;28;20041;-59
2022/07/31 06:31:26;;;;;;;9.30;7.28;;;;;;;28.12;48.09;94868.66;5061653;28;20649;-58
2022/07/31 06:33:52;;;;;;;9.15;7.40;;;;;;;28.13;48.93;94853.66;5056754;28;20036;-58
2022/07/31 06:36:17;;;;;;;9.95;7.65;;;;;;;28.23;47.99;94857.34;5062014;28;20553;-59
2022/07/31 06:38:43;;;;;;;11.38;8.20;;;;;;;28.33;48.40;94853.53;5061813;28;20033;-59
2022/07/31 06:41:08;;;;;;;10.77;8.05;;;;;;;28.36;48.08;94846.22;5061770;28;20154;-59
2022/07/31 06:43:34;;;;;;;11.20;8.30;;;;;;;28.42;47.72;94849.53;5060943;28;20036;-60
2022/07/31 06:46:00;;;;;;;11.05;8.48;;;;;;;28.47;47.86;94837.63;5062543;28;20497;-62
2022/07/31 06:48:25;;;;;;;11.60;9.05;;;;;;;28.55;47.67;94849.34;5064404;28;20036;-59
2022/07/31 06:50:51;;;;;;;12.27;8.40;;;;;;;28.65;47.17;94844.81;5064837;28;20542;-61
2022/07/31 06:53:16;;;;;;;12.07;8.63;;;;;;;28.66;47.08;94846.28;5062215;28;20407;-58
2022/07/31 06:55:41;;;;;;;11.32;8.52;;;;;;;28.73;47.49;94844.28;5064574;28;20032;-61
2022/07/31 06:58:07;;;;;;;12.35;8.90;;;;;;;28.75;47.09;94854.72;5052610;28;20107;-60
2022/07/31 07:00:32;;;;;;;13.10;9.55;;;;;;;28.83;47.36;94861.72;5046053;28;20116;-59
2022/07/31 07:02:58;;;;;;;11.80;9.10;;;;;;;28.82;47.14;94854.75;5044485;28;20094;-61
2022/07/31 07:05:23;;;;;;;11.90;8.88;;;;;;;28.86;46.86;94860.63;5044278;28;20029;-59
2022/07/31 07:07:49;;;;;;;12.90;8.98;;;;;;;28.86;47.14;94862.63;5045239;28;20106;-62
2022/07/31 07:10:14;;;;;;;12.10;8.65;;;;;;;29.08;46.70;94870.88;5045864;28;20041;-60
2022/07/31 07:12:40;;;;;;;12.68;8.90;;;;;;;29.15;46.72;94869.41;5052383;28;20032;-60
2022/07/31 07:15:06;;;;;;;13.10;9.55;;;;;;;29.19;46.52;94865.00;5044314;28;20416;-61
2022/07/31 07:17:31;;;;;;;12.70;9.68;;;;;;;29.24;46.54;94866.88;5042525;28;20065;-62
2022/07/31 07:19:57;;;;;;;14.32;9.88;;;;;;;29.24;46.01;94872.38;5043129;28;20040;-63
2022/07/31 07:22:22;;;;;;;12.63;9.50;;;;;;;29.28;46.20;94867.22;5038889;28;20555;-60
2022/07/31 07:24:48;;;;;;;14.70;10.32;;;;;;;29.27;46.54;94861.00;5038237;28;20037;-58
2022/07/31 07:27:13;;;;;;;13.93;10.02;;;;;;;29.32;46.74;94862.09;5038496;28;20495;-67
2022/07/31 07:29:38;;;;;;;14.90;10.25;;;;;;;29.37;46.17;94863.91;5047691;28;20087;-58
2022/07/31 07:32:04;;;;;;;13.20;9.45;;;;;;;29.40;46.20;94862.81;5051347;28;20037;-58
2022/07/31 07:34:29;;;;;;;14.50;9.50;;;;;;;29.40;45.90;94862.81;5058243;28;20068;-57
2022/07/31 07:36:55;;;;;;;13.27;9.20;;;;;;;29.61;46.30;94877.06;5045589;28;20495;-57
2022/07/31 07:39:21;;;;;;;13.98;9.85;;;;;;;29.61;45.98;94877.06;5045798;28;20025;-57
2022/07/31 07:41:47;;;;;;;13.73;9.88;;;;;;;29.67;45.68;94869.34;5052795;28;20033;-61
2022/07/31 07:44:12;;;;;;;12.77;9.50;;;;;;;29.75;45.58;94866.03;5043229;28;20484;-61
2022/07/31 07:46:38;;;;;;;12.65;10.13;;;;;;;29.75;46.08;94866.03;5044146;28;20041;-61
2022/07/31 07:49:03;;;;;;;13.15;10.20;;;;;;;29.77;45.87;94859.97;5043874;28;20079;-59
2022/07/31 07:51:29;;;;;;;12.68;10.20;;;;;;;29.78;45.93;94859.41;5043961;28;20045;-59
2022/07/31 07:53:54;;;;;;;13.30;9.93;;;;;;;29.82;45.69;94859.81;5044017;28;20049;-57
2022/07/31 07:56:20;;;;;;;15.05;10.77;;;;;;;29.88;45.76;94857.59;5043731;28;20041;-58
2022/07/31 07:58:47;;;;;;;17.38;10.13;;;;;;;29.92;46.32;94863.44;5044746;28;20045;-60
2022/07/31 08:01:13;;;;;;;12.63;9.10;;;;;;;29.95;46.70;94867.81;5044182;28;20037;-60
2022/07/31 08:06:43;;;;;;;11.07;8.05;;;;;;;29.77;46.15;94824.91;5009409;23;20068;-79
2022/07/31 08:09:08;;;;;;;11.85;8.40;;;;;;;30.13;46.07;94872.16;5001708;28;20050;-59
2022/07/31 08:11:34;;;;;;;12.25;7.90;;;;;;;30.13;45.92;94866.66;5004074;28;20038;-59
2022/07/31 08:13:59;;;;;;;10.20;7.85;;;;;;;30.14;45.82;94879.16;4991090;28;20030;-59
2022/07/31 08:16:25;;;;;;;13.90;8.73;;;;;;;30.22;45.63;94885.34;5014879;28;20049;-60
2022/07/31 08:18:51;;;;;;;11.32;7.97;;;;;;;30.31;45.46;94890.28;5004269;28;20037;-59
2022/07/31 08:21:16;;;;;;;11.10;7.35;;;;;;;30.39;44.99;94888.25;5000488;28;20042;-59
2022/07/31 08:23:42;;;;;;;9.98;7.57;;;;;;;30.32;45.00;94883.47;4988792;28;20062;-58
2022/07/31 08:26:08;;;;;;;11.50;7.30;;;;;;;30.32;45.36;94889.00;5002757;28;20034;-57
2022/07/31 08:28:34;;;;;;;11.88;7.68;;;;;;;30.36;45.02;94889.38;5003697;28;20069;-58
2022/07/31 08:31:00;;;;;;;12.40;8.32;;;;;;;30.34;45.20;94891.94;5003993;28;20523;-59
2022/07/31 08:33:25;;;;;;;10.98;7.55;;;;;;;30.33;45.16;94884.94;4985296;28;20203;-56
2022/07/31 08:35:51;;;;;;;10.07;6.88;;;;;;;30.33;45.12;94882.19;5003213;28;20034;-57
2022/07/31 08:38:17;;;;;;;14.13;7.07;;;;;;;30.36;44.89;94894.88;5004136;28;20118;-58
2022/07/31 08:40:43;;;;;;;9.75;6.90;;;;;;;30.44;44.58;94890.06;4996716;28;20118;-58
2022/07/31 08:43:09;;;;;;;11.13;6.68;;;;;;;30.38;44.69;94886.78;4993009;28;20049;-60
2022/07/31 08:45:36;;;;;;;8.02;6.55;;;;;;;30.49;44.00;94889.09;4992488;28;20030;-66
2022/07/31 08:48:01;;;;;;;9.68;6.47;;;;;;;30.42;43.75;94881.59;4988580;28;20073;-67
2022/07/31 08:50:27;;;;;;;8.48;6.50;;;;;;;30.41;44.23;94891.19;4986168;28;20413;-68
2022/07/31 08:52:53;;;;;;;7.85;6.20;;;;;;;30.26;44.29;94885.72;4994337;28;20026;-74
2022/07/31 08:55:18;;;;;;;7.93;6.28;;;;;;;30.20;44.82;94882.44;4967005;28;20509;-65
2022/07/31 08:57:46;;;;;;;8.63;6.43;;;;;;;30.18;44.80;94874.00;4975718;28;20041;-67
2022/07/31 09:00:16;;;;;;;8.23;6.22;;;;;;;30.20;44.80;94885.19;5003919;28;20057;-65
2022/07/31 09:02:41;;;;;;;8.60;6.25;;;;;;;30.20;44.48;94887.94;4997404;28;20093;-64
2022/07/31 09:05:07;;;;;;;9.13;6.72;;;;;;;30.21;44.92;94884.63;4976618;28;20031;-60
2022/07/31 09:07:33;;;;;;;9.38;6.57;;;;;;;30.14;44.96;94884.66;5003332;28;20038;-67
2022/07/31 09:09:58;;;;;;;9.38;6.88;;;;;;;30.16;45.00;94882.06;4968802;28;20037;-65
2022/07/31 09:12:32;;;;;;;9.35;7.38;;;;;;;30.18;44.83;94885.75;5002921;28;20463;-67
2022/07/31 09:14:57;;;;;;;9.70;6.95;;;;;;;30.24;44.59;94885.53;4992166;28;20033;-66
2022/07/31 09:17:33;;;;;;;9.63;6.75;;;;;;;30.30;44.46;94891.56;5003232;28;20041;-67
2022/07/31 09:19:59;;;;;;;8.90;6.85;;;;;;;30.37;44.28;94890.81;4985757;28;20038;-64
2022/07/31 09:22:26;;;;;;;9.95;7.38;;;;;;;30.27;44.61;94893.41;4983336;28;20046;-61
2022/07/31 09:24:52;;;;;;;9.25;7.93;;;;;;;30.35;44.11;94882.38;5003191;28;20029;-64
2022/07/31 09:27:18;;;;;;;11.80;8.27;;;;;;;30.37;44.49;94885.31;5002463;28;20147;-65
2022/07/31 09:29:45;;;;;;;11.63;8.18;;;;;;;30.40;43.96;94878.69;5002851;28;20041;-60
2022/07/31 09:32:12;;;;;;;11.52;8.80;;;;;;;30.37;43.92;94880.56;4985552;28;20049;-62
2022/07/31 09:34:39;;;;;;;12.93;8.90;;;;;;;30.40;43.93;94873.16;5001938;28;20038;-67
2022/07/31 09:37:18;;;;;;;12.93;9.52;;;;;;;30.49;43.75;94869.81;5002756;28;20107;-67
2022/07/31 09:39:54;;;;;;;13.48;10.07;;;;;;;30.50;42.87;94863.03;5002739;28;20049;-61
2022/07/31 09:42:20;;;;;;;15.52;11.85;;;;;;;30.55;43.38;94859.31;4987612;28;20035;-62
2022/07/31 09:44:46;;;;;;;16.50;11.65;;;;;;;30.52;42.85;94863.19;4997231;28;20119;-61
2022/07/31 09:47:27;;;;;;;13.90;10.73;;;;;;;30.72;42.17;94860.84;5002377;28;20037;-65
2022/07/31 09:49:57;;;;;;;12.88;9.85;;;;;;;30.66;42.13;94863.09;5001371;28;20052;-64
2022/07/31 09:52:22;;;;;;;13.40;10.32;;;;;;;30.77;41.59;94868.16;5002863;28;20030;-65
2022/07/31 09:54:58;;;;;;;14.20;10.25;;;;;;;30.65;41.79;94856.09;5000472;28;20433;-63
2022/07/31 09:57:23;;;;;;;13.30;10.00;;;;;;;30.68;40.80;94860.50;4986808;28;20040;-62
2022/07/31 09:59:49;;;;;;;13.57;10.27;;;;;;;30.66;41.16;94862.38;5002884;28;20034;-65
2022/07/31 10:02:15;;;;;;;13.98;10.32;;;;;;;30.61;41.50;94866.06;4984801;28;20343;-66
2022/07/31 10:04:40;;;;;;;14.18;10.35;;;;;;;30.70;41.22;94849.66;4984482;28;20045;-65
2022/07/31 10:07:06;;;;;;;12.70;9.88;;;;;;;30.69;41.05;94853.69;4976249;28;21759;-63
2022/07/31 10:09:31;;;;;;;12.45;10.13;;;;;;;30.70;40.92;94846.91;5000704;28;20585;-61
2022/07/31 10:11:57;;;;;;;13.35;10.20;;;;;;;30.62;41.19;94847.50;4985060;28;20042;-63
2022/07/31 10:14:27;;;;;;;13.98;10.88;;;;;;;30.58;41.07;94839.59;4966818;28;20057;-65
2022/07/31 10:16:55;;;;;;;11.98;10.07;;;;;;;30.55;41.60;94840.00;4972768;28;20117;-63
2022/07/31 10:19:20;;;;;;;14.48;11.30;;;;;;;30.59;41.16;94845.88;4984958;28;20033;-66
2022/07/31 10:21:50;;;;;;;12.60;10.50;;;;;;;30.77;41.00;94840.56;5001123;28;20048;-61
2022/07/31 10:24:16;;;;;;;13.88;10.90;;;;;;;30.69;40.85;94837.16;4989029;28;20046;-64
2022/07/31 10:26:42;;;;;;;15.20;11.05;;;;;;;30.74;40.80;94836.19;4972463;28;20038;-65
2022/07/31 10:29:08;;;;;;;13.57;10.68;;;;;;;30.72;40.63;94825.00;4988639;28;20048;-65
2022/07/31 10:31:33;;;;;;;13.35;10.45;;;;;;;30.86;39.64;94837.19;4988441;28;20033;-64
2022/07/31 10:33:59;;;;;;;14.48;10.77;;;;;;;30.90;39.85;94826.53;4971252;28;20052;-67
2022/07/31 10:36:26;;;;;;;13.18;10.85;;;;;;;30.88;40.10;94823.63;4988687;28;20133;-66
2022/07/31 10:38:58;;;;;;;12.65;10.10;;;;;;;30.93;39.80;94824.69;4995626;28;20065;-64
2022/07/31 10:41:46;;;;;;;12.40;10.18;;;;;;;30.89;39.77;94807.81;4988615;28;20030;-64
2022/07/31 10:44:30;;;;;;;12.82;10.25;;;;;;;30.95;39.58;94811.78;4987816;28;20042;-64
2022/07/31 10:46:56;;;;;;;11.73;9.48;;;;;;;31.07;39.15;94807.28;5005504;28;20034;-67
2022/07/31 10:49:57;;;;;;;12.45;9.48;;;;;;;31.06;38.78;94814.09;4988664;28;20053;-63
2022/07/31 10:52:26;;;;;;;12.65;9.80;;;;;;;31.02;39.14;94816.50;4926853;28;20071;-63
2022/07/31 10:54:53;;;;;;;12.48;10.15;;;;;;;31.04;39.16;94816.69;4989580;28;20049;-65
2022/07/31 10:57:26;;;;;;;10.98;9.48;;;;;;;31.12;38.99;94809.09;5005569;28;20883;-66
2022/07/31 10:59:51;;;;;;;11.65;9.23;;;;;;;31.15;38.71;94813.44;5005647;28;20034;-61
2022/07/31 11:02:33;;;;;;;10.77;8.82;;;;;;;31.20;38.61;94801.44;5005391;28;20026;-65
2022/07/31 11:05:12;;;;;;;11.93;9.43;;;;;;;31.18;39.03;94795.75;5004415;28;20038;-61
2022/07/31 11:07:41;;;;;;;11.20;9.40;;;;;;;31.20;38.68;94801.44;5004100;28;20049;-62
2022/07/31 11:10:11;;;;;;;11.35;9.18;;;;;;;31.23;38.65;94803.09;5005486;28;20424;-62
2022/07/31 11:12:36;;;;;;;9.90;8.40;;;;;;;31.23;38.05;94792.75;5005665;28;20096;-65
2022/07/31 11:15:03;;;;;;;9.98;8.13;;;;;;;31.18;38.20;94784.72;5007193;28;20463;-59
2022/07/31 11:17:33;;;;;;;9.57;8.55;;;;;;;31.13;37.95;94793.97;4979536;28;20153;-61
2022/07/31 11:19:58;;;;;;;9.55;8.55;;;;;;;31.15;38.15;94785.84;5004875;28;20493;-64
2022/07/31 11:22:24;;;;;;;9.52;7.85;;;;;;;31.19;38.19;94777.91;5005613;28;20069;-61
2022/07/31 11:24:54;;;;;;;9.60;8.57;;;;;;;31.16;38.38;94776.28;5004385;28;20053;-61
2022/07/31 11:27:31;;;;;;;12.02;8.77;;;;;;;31.17;38.28;94783.28;5005333;28;20041;-63